createdAt,value
2019-02-25T00:02:29.892Z,207.87
2019-02-25T00:04:58.471Z,201.17
2019-02-25T00:07:26.790Z,203.60
2019-02-25T00:09:55.075Z,194.77
2019-02-25T00:12:23.396Z,192.03
2019-02-25T00:14:51.681Z,197.63
2019-02-25T00:17:20.003Z,191.17
2019-02-25T00:19:48.646Z,187.40
2019-02-25T00:22:17.227Z,192.73
2019-02-25T00:24:45.543Z,191.60
2019-02-25T00:27:13.827Z,188.33
2019-02-25T00:29:42.190Z,192.70
2019-02-25T00:32:10.847Z,181.90
2019-02-25T00:34:39.423Z,174.37
2019-02-25T00:37:08.016Z,182.77
2019-02-25T00:39:36.592Z,173.30
2019-02-25T00:42:04.904Z,166.00
2019-02-25T00:44:33.196Z,164.00
2019-02-25T00:47:01.506Z,165.53
2019-02-25T00:49:30.126Z,151.03
2019-02-25T00:51:58.486Z,114.97
2019-02-25T00:54:26.771Z,94.90
2019-02-25T00:56:55.078Z,92.70
2019-02-25T00:59:23.383Z,100.23
2019-02-25T01:01:51.873Z,104.10
2019-02-25T01:04:20.395Z,96.97
2019-02-25T01:06:48.814Z,100.20
2019-02-25T01:09:17.093Z,99.47
2019-02-25T01:11:45.398Z,97.33
2019-02-25T01:14:13.695Z,89.27
2019-02-25T01:16:42.274Z,90.10
2019-02-25T01:19:10.859Z,86.17
2019-02-25T01:21:39.164Z,81.07
2019-02-25T01:24:07.438Z,82.30
2019-02-25T01:26:36.098Z,78.83
2019-02-25T01:29:04.406Z,79.13
2019-02-25T01:31:32.713Z,76.07
2019-02-25T01:34:00.993Z,72.97
2019-02-25T01:36:29.305Z,70.20
2019-02-25T01:38:57.610Z,70.57
2019-02-25T01:41:25.910Z,64.43
2019-02-25T01:43:54.204Z,64.30
2019-02-25T01:46:22.824Z,63.10
2019-02-25T01:48:52.139Z,63.93
2019-02-25T01:51:22.094Z,62.67
2019-02-25T01:53:50.450Z,62.27
2019-02-25T01:56:19.004Z,56.13
2019-02-25T01:58:47.303Z,55.87
2019-02-25T02:01:15.867Z,52.40
2019-02-25T02:03:44.157Z,50.10
2019-02-25T02:06:12.446Z,52.73
2019-02-25T02:08:40.743Z,50.37
2019-02-25T02:11:09.380Z,47.13
2019-02-25T02:13:39.608Z,48.90
2019-02-25T02:16:08.178Z,42.97
2019-02-25T02:18:36.778Z,47.43
2019-02-25T02:21:05.090Z,45.27
2019-02-25T02:23:33.386Z,42.20
2019-02-25T02:26:01.687Z,39.63
2019-02-25T02:28:30.287Z,42.80
2019-02-25T02:31:01.273Z,39.90
2019-02-25T02:33:29.583Z,36.43
2019-02-25T02:35:58.204Z,38.00
2019-02-25T02:38:26.504Z,36.03
2019-02-25T02:40:54.786Z,34.47
2019-02-25T02:43:23.427Z,33.23
2019-02-25T02:45:58.178Z,35.30
2019-02-25T02:48:35.642Z,33.20
2019-02-25T02:51:03.928Z,33.40
2019-02-25T02:53:32.228Z,29.73
2019-02-25T02:56:00.513Z,31.93
2019-02-25T02:58:29.162Z,29.43
2019-02-25T03:00:57.742Z,29.60
2019-02-25T03:03:26.325Z,27.67
2019-02-25T03:05:54.910Z,27.37
2019-02-25T03:08:23.298Z,28.23
2019-02-25T03:10:51.655Z,26.47
2019-02-25T03:13:20.250Z,27.27
2019-02-25T03:15:48.534Z,22.87
2019-02-25T03:18:16.849Z,25.07
2019-02-25T03:20:45.218Z,22.53
2019-02-25T03:23:13.498Z,23.00
2019-02-25T03:25:42.148Z,23.80
2019-02-25T03:28:10.730Z,22.57
2019-02-25T03:30:39.029Z,24.47
2019-02-25T03:33:07.314Z,23.53
2019-02-25T03:35:35.969Z,20.57
2019-02-25T03:38:04.556Z,23.17
2019-02-25T03:40:32.833Z,22.30
2019-02-25T03:43:01.420Z,19.70
2019-02-25T03:45:30.099Z,19.30
2019-02-25T03:47:58.383Z,18.03
2019-02-25T03:50:26.958Z,18.10
2019-02-25T03:52:55.548Z,17.97
2019-02-25T03:55:23.841Z,18.07
2019-02-25T03:57:52.196Z,17.80
2019-02-25T04:00:23.056Z,16.40
2019-02-25T04:02:51.423Z,16.63
2019-02-25T04:05:20.001Z,17.40
2019-02-25T04:07:48.288Z,18.30
2019-02-25T04:10:16.602Z,15.63
2019-02-25T04:12:44.948Z,15.33
2019-02-25T04:15:22.118Z,17.53
2019-02-25T04:17:50.397Z,15.93
2019-02-25T04:20:18.682Z,15.20
2019-02-25T04:22:46.996Z,16.33
2019-02-25T04:25:15.647Z,16.93
2019-02-25T04:27:44.007Z,16.67
2019-02-25T04:30:14.440Z,14.43
2019-02-25T04:32:42.727Z,15.80
2019-02-25T04:35:12.500Z,13.33
2019-02-25T04:37:40.811Z,13.70
2019-02-25T04:40:11.244Z,14.23
2019-02-25T04:42:39.589Z,12.93
2019-02-25T04:45:10.895Z,13.80
2019-02-25T04:47:39.186Z,14.17
2019-02-25T04:50:09.574Z,12.10
2019-02-25T04:52:38.150Z,12.93
2019-02-25T04:55:08.726Z,13.73
2019-02-25T04:57:37.014Z,13.83
2019-02-25T05:00:11.408Z,12.53
2019-02-25T05:02:40.056Z,12.77
2019-02-25T05:05:09.066Z,12.07
2019-02-25T05:07:37.355Z,11.50
2019-02-25T05:10:09.039Z,12.93
2019-02-25T05:12:38.300Z,12.63
2019-02-25T05:15:07.850Z,10.57
2019-02-25T05:17:36.120Z,11.43
2019-02-25T05:20:05.837Z,12.17
2019-02-25T05:22:34.113Z,11.97
2019-02-25T05:25:02.736Z,11.90
2019-02-25T05:27:31.038Z,11.03
2019-02-25T05:29:59.351Z,10.93
2019-02-25T05:32:27.627Z,12.27
2019-02-25T05:34:56.249Z,11.57
2019-02-25T05:37:24.542Z,11.30
2019-02-25T05:39:52.840Z,11.43
2019-02-25T05:42:21.113Z,9.83
2019-02-25T05:44:49.412Z,10.60
2019-02-25T05:47:17.682Z,11.40
2019-02-25T05:49:46.083Z,10.87
2019-02-25T05:52:14.707Z,15.23
2019-02-25T05:54:43.289Z,9.90
2019-02-25T05:57:11.582Z,11.00
2019-02-25T05:59:39.862Z,9.27
2019-02-25T06:02:08.518Z,9.57
2019-02-25T06:04:37.115Z,10.47
2019-02-25T06:07:05.408Z,12.57
2019-02-25T06:09:33.684Z,9.67
2019-02-25T06:12:01.993Z,10.27
2019-02-25T06:14:30.263Z,8.40
2019-02-25T06:17:00.572Z,10.83
2019-02-25T06:19:28.578Z,11.07
2019-02-25T06:21:57.041Z,11.17
2019-02-25T06:24:25.319Z,12.20
2019-02-25T06:26:53.600Z,13.23
2019-02-25T06:29:22.230Z,15.00
2019-02-25T06:31:50.514Z,13.17
2019-02-25T06:34:18.800Z,14.40
2019-02-25T06:36:47.118Z,14.50
2019-02-25T06:39:15.417Z,15.10
2019-02-25T06:41:44.035Z,15.80
2019-02-25T06:44:12.315Z,16.83
2019-02-25T06:46:40.611Z,14.30
2019-02-25T06:49:09.255Z,15.40
2019-02-25T06:51:37.971Z,14.67
2019-02-25T06:54:06.352Z,15.47
2019-02-25T06:56:34.703Z,17.50
2019-02-25T06:59:03.289Z,15.53
2019-02-25T07:01:31.571Z,16.73
2019-02-25T07:04:04.967Z,18.50
2019-02-25T07:06:34.981Z,21.33
2019-02-25T07:09:07.625Z,19.10
2019-02-25T07:11:37.874Z,17.67
2019-02-25T07:14:10.476Z,18.97
2019-02-25T07:16:40.418Z,18.53
2019-02-25T07:19:13.565Z,20.20
2019-02-25T07:21:43.486Z,16.93
2019-02-25T07:24:16.159Z,16.10
2019-02-25T07:26:46.097Z,18.67
2019-02-25T07:29:31.458Z,17.33
2019-02-25T07:32:19.800Z,15.70
2019-02-25T07:35:01.652Z,15.53
2019-02-25T07:37:47.954Z,17.87
2019-02-25T07:40:34.191Z,17.53
2019-02-25T07:43:04.130Z,14.50
2019-02-25T07:45:43.022Z,14.90
2019-02-25T07:48:29.436Z,16.43
2019-02-25T07:51:02.218Z,15.50
2019-02-25T07:53:38.278Z,13.43
2019-02-25T07:56:14.071Z,14.97
2019-02-25T07:58:55.920Z,16.37
2019-02-25T08:01:25.880Z,13.87
2019-02-25T08:04:02.202Z,13.87
2019-02-25T08:06:44.318Z,13.67
2019-02-25T08:09:19.844Z,13.40
2019-02-25T08:11:55.725Z,13.60
2019-02-25T08:14:42.319Z,14.17
2019-02-25T08:17:14.878Z,15.97
2019-02-25T08:20:00.265Z,11.27
2019-02-25T08:22:36.222Z,10.80
2019-02-25T08:25:24.372Z,11.63
2019-02-25T08:28:00.350Z,12.10
2019-02-25T08:30:30.543Z,10.73
2019-02-25T08:33:15.616Z,12.40
2019-02-25T08:36:01.006Z,12.10
2019-02-25T08:38:37.141Z,11.67
2019-02-25T08:41:24.278Z,12.83
2019-02-25T08:43:54.489Z,9.60
2019-02-25T08:46:27.588Z,11.97
2019-02-25T08:48:57.830Z,10.70
2019-02-25T08:51:26.499Z,10.97
2019-02-25T08:53:55.079Z,11.90
2019-02-25T08:56:23.377Z,10.33
2019-02-25T08:58:51.955Z,10.20
2019-02-25T09:01:20.259Z,10.60
2019-02-25T09:03:48.571Z,10.27
2019-02-25T09:06:17.384Z,12.20
2019-02-25T09:08:45.678Z,10.00
2019-02-25T09:11:14.540Z,10.87
2019-02-25T09:13:43.335Z,10.63
2019-02-25T09:16:11.618Z,11.73
2019-02-25T09:18:39.901Z,9.67
2019-02-25T09:21:08.358Z,10.53
2019-02-25T09:23:37.086Z,9.30
2019-02-25T09:26:05.665Z,10.23
2019-02-25T09:28:34.324Z,8.93
2019-02-25T09:31:02.638Z,9.37
2019-02-25T09:33:30.987Z,10.03
2019-02-25T09:35:59.582Z,10.50
2019-02-25T09:38:28.156Z,10.47
2019-02-25T09:40:56.474Z,24.73
2019-02-25T09:43:24.786Z,36.57
2019-02-25T09:45:53.149Z,43.47
2019-02-25T09:48:21.766Z,33.80
2019-02-25T09:50:50.086Z,38.10
2019-02-25T09:53:18.842Z,36.77
2019-02-25T09:55:47.149Z,37.50
2019-02-25T09:58:15.432Z,36.63
2019-02-25T10:00:43.737Z,39.63
2019-02-25T10:03:12.354Z,41.47
2019-02-25T10:05:41.043Z,43.93
2019-02-25T10:08:09.352Z,42.53
2019-02-25T10:10:37.643Z,41.23
2019-02-25T10:13:06.277Z,41.90
2019-02-25T10:15:34.866Z,47.70
2019-02-25T10:18:03.450Z,48.20
2019-02-25T10:20:31.768Z,50.40
2019-02-25T10:23:00.414Z,45.43
2019-02-25T10:25:28.989Z,51.23
2019-02-25T10:27:59.218Z,48.23
2019-02-25T10:30:27.794Z,49.50
2019-02-25T10:32:56.083Z,46.63
2019-02-25T10:35:29.158Z,49.03
2019-02-25T10:37:57.727Z,67.03
2019-02-25T10:40:27.548Z,66.87
2019-02-25T10:42:56.051Z,55.90
2019-02-25T10:45:24.356Z,58.87
2019-02-25T10:47:57.624Z,56.60
2019-02-25T10:50:22.678Z,53.80
2019-02-25T10:52:50.958Z,52.33
2019-02-25T10:55:31.454Z,50.53
2019-02-25T10:58:01.513Z,45.43
2019-02-25T11:00:30.218Z,47.07
2019-02-25T11:02:58.577Z,45.57
2019-02-25T11:05:29.959Z,52.73
2019-02-25T11:07:57.159Z,49.30
2019-02-25T11:10:38.914Z,53.30
2019-02-25T11:13:07.209Z,49.77
2019-02-25T11:15:37.511Z,50.53
2019-02-25T11:18:07.770Z,44.83
2019-02-25T11:20:37.733Z,47.50
2019-02-25T11:23:06.178Z,44.93
2019-02-25T11:25:34.455Z,46.17
2019-02-25T11:28:04.946Z,42.47
2019-02-25T11:30:33.159Z,42.07
2019-02-25T11:33:01.461Z,43.37
2019-02-25T11:35:29.755Z,43.47
2019-02-25T11:37:59.622Z,41.27
2019-02-25T11:40:30.984Z,41.20
2019-02-25T11:42:58.512Z,36.40
2019-02-25T11:45:26.797Z,50.23
2019-02-25T11:47:55.105Z,65.40
2019-02-25T11:50:23.411Z,70.77
2019-02-25T11:52:52.026Z,69.73
2019-02-25T11:55:21.859Z,67.77
2019-02-25T11:57:50.725Z,70.60
2019-02-25T12:00:26.239Z,67.97
2019-02-25T12:02:54.542Z,67.37
2019-02-25T12:05:22.851Z,64.23
2019-02-25T12:07:51.428Z,62.77
2019-02-25T12:10:19.725Z,69.73
2019-02-25T12:12:48.379Z,58.50
2019-02-25T12:15:19.085Z,55.20
2019-02-25T12:17:47.792Z,52.53
2019-02-25T12:20:16.079Z,53.53
2019-02-25T12:22:44.402Z,51.10
2019-02-25T12:25:21.579Z,47.50
2019-02-25T12:27:49.887Z,48.30
2019-02-25T12:30:20.377Z,46.53
2019-02-25T12:32:49.130Z,39.07
2019-02-25T12:35:17.723Z,33.73
2019-02-25T12:37:46.154Z,30.50
2019-02-25T12:40:15.936Z,27.10
2019-02-25T12:42:44.238Z,22.90
2019-02-25T12:45:14.352Z,19.57
2019-02-25T12:47:42.630Z,18.00
2019-02-25T12:50:20.187Z,17.17
2019-02-25T12:52:48.869Z,14.77
2019-02-25T12:55:20.789Z,15.23
2019-02-25T12:57:49.081Z,13.13
2019-02-25T13:00:18.289Z,11.97
2019-02-25T13:02:46.566Z,15.47
2019-02-25T13:05:19.948Z,13.40
2019-02-25T13:07:48.651Z,18.00
2019-02-25T13:10:17.786Z,9.83
2019-02-25T13:12:46.370Z,11.97
2019-02-25T13:15:19.611Z,8.70
2019-02-25T13:17:47.886Z,13.07
2019-02-25T13:20:16.597Z,13.37
2019-02-25T13:22:44.976Z,9.30
2019-02-25T13:25:21.835Z,12.23
2019-02-25T13:27:51.837Z,10.43
2019-02-25T13:30:20.662Z,11.10
2019-02-25T13:32:49.059Z,12.23
2019-02-25T13:35:17.447Z,9.33
2019-02-25T13:37:45.738Z,12.97
2019-02-25T13:40:17.832Z,9.30
2019-02-25T13:42:46.288Z,8.90
2019-02-25T13:45:18.128Z,12.00
2019-02-25T13:47:46.999Z,8.00
2019-02-25T13:50:16.615Z,8.13
2019-02-25T13:52:48.518Z,7.17
2019-02-25T13:55:23.081Z,6.63
2019-02-25T13:57:51.465Z,9.40
2019-02-25T14:00:21.464Z,8.47
2019-02-25T14:02:49.875Z,8.33
2019-02-25T14:05:18.755Z,15.10
2019-02-25T14:07:50.221Z,13.37
2019-02-25T14:10:19.396Z,12.47
2019-02-25T14:12:48.078Z,13.40
2019-02-25T14:15:22.629Z,8.60
2019-02-25T14:17:51.020Z,6.90
2019-02-25T14:20:22.035Z,9.10
2019-02-25T14:22:50.457Z,23.30
2019-02-25T14:25:30.041Z,13.77
2019-02-25T14:27:58.533Z,23.20
2019-02-25T14:30:32.922Z,22.53
2019-02-25T14:32:59.017Z,24.70
2019-02-25T14:35:28.991Z,27.87
2019-02-25T14:38:02.454Z,27.90
2019-02-25T14:40:31.486Z,27.90
2019-02-25T14:42:59.986Z,26.43
2019-02-25T14:45:31.538Z,26.17
2019-02-25T14:47:59.854Z,25.70
2019-02-25T14:50:29.014Z,21.30
2019-02-25T14:52:57.683Z,23.93
2019-02-25T14:55:26.264Z,33.63
2019-02-25T14:57:55.270Z,31.47
2019-02-25T15:00:28.379Z,39.13
2019-02-25T15:02:56.168Z,32.37
2019-02-25T15:05:24.632Z,33.07
2019-02-25T15:07:53.463Z,31.50
2019-02-25T15:10:26.599Z,27.63
2019-02-25T15:12:56.442Z,28.73
2019-02-25T15:15:23.407Z,29.00
2019-02-25T15:17:52.776Z,29.33
2019-02-25T15:20:23.550Z,30.70
2019-02-25T15:22:53.278Z,28.40
2019-02-25T15:25:21.642Z,27.43
2019-02-25T15:27:50.550Z,36.37
2019-02-25T15:30:22.882Z,33.23
2019-02-25T15:32:55.693Z,39.70
2019-02-25T15:35:21.427Z,44.83
2019-02-25T15:37:50.732Z,46.97
2019-02-25T15:40:21.020Z,58.33
2019-02-25T15:43:05.763Z,43.07
2019-02-25T15:45:37.580Z,37.13
2019-02-25T15:48:06.221Z,36.27
2019-02-25T15:50:34.594Z,33.27
2019-02-25T15:53:05.110Z,33.87
2019-02-25T15:55:33.388Z,39.03
2019-02-25T15:58:01.800Z,34.97
2019-02-25T16:00:32.720Z,32.83
2019-02-25T16:03:01.137Z,33.47
2019-02-25T16:05:30.194Z,33.83
2019-02-25T16:08:02.391Z,33.97
2019-02-25T16:10:29.614Z,32.17
2019-02-25T16:12:59.926Z,37.27
2019-02-25T16:15:30.575Z,32.23
2019-02-25T16:17:59.412Z,32.07
2019-02-25T16:20:32.249Z,30.87
2019-02-25T16:23:00.344Z,34.47
2019-02-25T16:25:29.789Z,31.47
2019-02-25T16:27:58.817Z,32.00
2019-02-25T16:30:30.505Z,28.87
2019-02-25T16:32:57.307Z,29.93
2019-02-25T16:35:25.680Z,29.93
2019-02-25T16:37:55.218Z,29.83
2019-02-25T16:40:26.414Z,29.30
2019-02-25T16:42:57.017Z,28.63
2019-02-25T16:45:28.490Z,29.43
2019-02-25T16:47:56.031Z,27.80
2019-02-25T16:50:24.387Z,30.63
2019-02-25T16:52:53.009Z,29.30
2019-02-25T16:55:27.366Z,35.13
2019-02-25T16:57:55.386Z,29.40
2019-02-25T17:00:30.134Z,27.03
2019-02-25T17:03:01.362Z,28.50
2019-02-25T17:05:28.370Z,26.60
2019-02-25T17:07:57.039Z,34.63
2019-02-25T17:10:27.110Z,37.90
2019-02-25T17:12:56.032Z,36.30
2019-02-25T17:15:26.891Z,30.57
2019-02-25T17:17:58.387Z,27.53
2019-02-25T17:20:27.759Z,27.37
2019-02-25T17:22:55.464Z,27.00
2019-02-25T17:25:26.965Z,31.30
2019-02-25T17:27:53.895Z,26.93
2019-02-25T17:30:24.120Z,24.00
2019-02-25T17:32:52.851Z,23.03
2019-02-25T17:35:24.201Z,21.67
2019-02-25T17:37:53.359Z,32.20
2019-02-25T17:40:22.676Z,37.60
2019-02-25T17:42:53.750Z,37.37
2019-02-25T17:45:32.476Z,19.00
2019-02-25T17:48:03.216Z,23.50
2019-02-25T17:50:32.593Z,42.97
2019-02-25T17:53:01.357Z,53.07
2019-02-25T17:55:31.705Z,47.37
2019-02-25T17:58:01.083Z,48.97
2019-02-25T18:00:34.329Z,53.80
2019-02-25T18:03:03.676Z,73.07
2019-02-25T18:05:34.132Z,61.73
2019-02-25T18:08:03.029Z,57.17
2019-02-25T18:10:32.754Z,60.37
2019-02-25T18:13:05.993Z,58.43
2019-02-25T18:15:32.928Z,57.07
2019-02-25T18:18:01.434Z,56.43
2019-02-25T18:20:30.167Z,71.67
2019-02-25T18:22:58.847Z,79.87
2019-02-25T18:25:27.214Z,79.83
2019-02-25T18:27:55.896Z,71.13
2019-02-25T18:30:31.356Z,65.70
2019-02-25T18:33:02.812Z,63.87
2019-02-25T18:35:30.627Z,58.83
2019-02-25T18:38:02.597Z,58.13
2019-02-25T18:40:33.940Z,65.83
2019-02-25T18:43:06.768Z,56.20
2019-02-25T18:45:38.408Z,58.43
2019-02-25T18:48:08.733Z,59.73
2019-02-25T18:50:39.323Z,62.37
2019-02-25T18:53:07.760Z,63.57
2019-02-25T18:55:36.658Z,63.27
2019-02-25T18:58:07.929Z,57.23
2019-02-25T19:00:42.440Z,56.60
2019-02-25T19:03:11.508Z,52.50
2019-02-25T19:05:41.530Z,60.77
2019-02-25T19:08:19.798Z,60.47
2019-02-25T19:10:51.006Z,56.23
2019-02-25T19:13:22.731Z,49.63
2019-02-25T19:15:53.112Z,47.47
2019-02-25T19:18:22.158Z,55.90
2019-02-25T19:20:50.516Z,61.23
2019-02-25T19:23:19.825Z,65.73
2019-02-25T19:25:48.650Z,69.47
2019-02-25T19:28:19.637Z,68.13
2019-02-25T19:30:50.525Z,67.93
2019-02-25T19:33:20.484Z,71.23
2019-02-25T19:35:48.173Z,67.67
2019-02-25T19:38:17.801Z,69.13
2019-02-25T19:40:50.376Z,78.87
2019-02-25T19:43:16.711Z,74.00
2019-02-25T19:45:45.516Z,70.33
2019-02-25T19:48:14.169Z,66.40
2019-02-25T19:50:50.574Z,61.00
2019-02-25T19:53:15.149Z,62.73
2019-02-25T19:55:45.522Z,62.60
2019-02-25T19:58:13.214Z,59.67
2019-02-25T20:00:41.907Z,60.73
2019-02-25T20:03:10.297Z,61.03
2019-02-25T20:05:41.559Z,58.20
2019-02-25T20:08:10.207Z,56.40
2019-02-25T20:10:38.967Z,59.47
2019-02-25T20:13:08.687Z,57.20
2019-02-25T20:15:39.953Z,57.20
2019-02-25T20:18:09.331Z,57.37
2019-02-25T20:20:38.893Z,54.10
2019-02-25T20:23:08.676Z,54.77
2019-02-25T20:25:37.169Z,55.67
2019-02-25T20:28:05.841Z,54.03
2019-02-25T20:30:34.428Z,54.60
2019-02-25T20:33:03.872Z,53.33
2019-02-25T20:35:33.038Z,53.57
2019-02-25T20:38:03.226Z,51.57
2019-02-25T20:40:33.038Z,54.73
2019-02-25T20:43:03.125Z,52.10
2019-02-25T20:45:36.114Z,53.07
2019-02-25T20:48:04.689Z,54.03
2019-02-25T20:50:33.342Z,48.47
2019-02-25T20:53:05.564Z,45.57
2019-02-25T20:55:33.886Z,43.40
2019-02-25T20:58:02.378Z,43.43
2019-02-25T21:00:34.911Z,45.67
2019-02-25T21:03:01.272Z,47.57
2019-02-25T21:05:29.571Z,46.77
2019-02-25T21:07:59.783Z,53.43
2019-02-25T21:10:29.922Z,51.20
2019-02-25T21:13:01.463Z,51.83
2019-02-25T21:15:28.609Z,53.03
2019-02-25T21:17:59.368Z,56.73
2019-02-25T21:20:28.834Z,51.30
2019-02-25T21:22:58.705Z,50.80
2019-02-25T21:25:29.150Z,60.80
2019-02-25T21:27:59.932Z,55.80
2019-02-25T21:30:28.038Z,59.60
2019-02-25T21:32:57.237Z,55.57
2019-02-25T21:35:28.254Z,59.43
2019-02-25T21:37:57.007Z,56.03
2019-02-25T21:40:27.768Z,56.90
2019-02-25T21:42:56.632Z,56.33
2019-02-25T21:45:29.039Z,58.30
2019-02-25T21:47:56.476Z,53.40
2019-02-25T21:50:28.441Z,52.97
2019-02-25T21:52:56.077Z,63.97
2019-02-25T21:55:26.226Z,57.67
2019-02-25T21:57:57.241Z,53.43
2019-02-25T22:00:32.006Z,75.50
2019-02-25T22:02:58.721Z,68.37
2019-02-25T22:05:27.028Z,79.37
2019-02-25T22:07:57.311Z,83.77
2019-02-25T22:10:25.698Z,79.57
2019-02-25T22:12:54.303Z,83.73
2019-02-25T22:15:22.797Z,71.07
2019-02-25T22:17:53.389Z,76.70
2019-02-25T22:20:22.510Z,83.33
2019-02-25T22:22:54.616Z,93.17
2019-02-25T22:25:23.048Z,89.53
2019-02-25T22:27:51.825Z,94.90
2019-02-25T22:30:21.899Z,102.73
2019-02-25T22:32:50.277Z,91.67
2019-02-25T22:35:18.565Z,89.67
2019-02-25T22:37:49.454Z,99.70
2019-02-25T22:40:17.650Z,94.30
2019-02-25T22:42:47.846Z,118.30
2019-02-25T22:45:19.018Z,135.03
2019-02-25T22:47:47.867Z,153.43
2019-02-25T22:50:16.159Z,152.13
2019-02-25T22:52:44.841Z,154.90
2019-02-25T22:55:15.378Z,152.73
2019-02-25T22:57:45.703Z,139.40
2019-02-25T23:00:19.763Z,138.47
2019-02-25T23:02:51.772Z,149.43
2019-02-25T23:05:21.205Z,166.67
2019-02-25T23:07:51.900Z,223.37
2019-02-25T23:10:21.823Z,323.90
2019-02-25T23:12:50.066Z,326.60
2019-02-25T23:15:20.358Z,306.97
2019-02-25T23:17:48.451Z,344.77
2019-02-25T23:20:16.774Z,328.20
2019-02-25T23:22:45.650Z,319.83
2019-02-25T23:25:13.945Z,323.27
2019-02-25T23:27:42.251Z,351.97
2019-02-25T23:30:12.654Z,356.40
2019-02-25T23:32:41.418Z,338.20
2019-02-25T23:35:13.664Z,338.57
2019-02-25T23:37:40.019Z,326.43
2019-02-25T23:40:12.532Z,339.67
2019-02-25T23:42:41.882Z,391.70
2019-02-25T23:45:13.461Z,355.60
2019-02-25T23:47:42.838Z,342.17
2019-02-25T23:50:13.687Z,246.03
2019-02-25T23:52:42.185Z,172.63
2019-02-25T23:55:14.291Z,189.37
2019-02-25T23:57:41.899Z,205.40
